sensor_id;sensor_type;location;lat;lon;timestamp;pressure;altitude;pressure_sealevel;temperature;humidity
9335;BME280;4706;41.844;26.082;2023-07-31T00:00:32;100063.91;;;24.85;60.02
9335;BME280;4706;41.844;26.082;2023-07-31T00:02:58;100064.69;;;24.89;60.53
9335;BME280;4706;41.844;26.082;2023-07-31T00:05:23;100068.72;;;24.88;60.88
9335;BME280;4706;41.844;26.082;2023-07-31T00:07:49;100067.09;;;24.91;61.54
9335;BME280;4706;41.844;26.082;2023-07-31T00:10:14;100069.50;;;24.92;61.86
9335;BME280;4706;41.844;26.082;2023-07-31T00:12:42;100064.31;;;24.84;62.10
9335;BME280;4706;41.844;26.082;2023-07-31T00:15:08;100064.31;;;24.84;62.44
9335;BME280;4706;41.844;26.082;2023-07-31T00:17:34;100075.56;;;24.87;62.87
9335;BME280;4706;41.844;26.082;2023-07-31T00:19:59;100069.28;;;24.58;63.83
9335;BME280;4706;41.844;26.082;2023-07-31T00:22:25;100069.66;;;24.67;64.31
9335;BME280;4706;41.844;26.082;2023-07-31T00:24:51;100070.72;;;24.91;63.52
9335;BME280;4706;41.844;26.082;2023-07-31T00:27:16;100066.28;;;24.94;63.29
9335;BME280;4706;41.844;26.082;2023-07-31T00:29:42;100062.25;;;24.95;63.55
9335;BME280;4706;41.844;26.082;2023-07-31T00:32:07;100071.47;;;24.99;63.50
9335;BME280;4706;41.844;26.082;2023-07-31T00:34:33;100072.25;;;25.00;63.58
9335;BME280;4706;41.844;26.082;2023-07-31T00:36:58;100058.97;;;25.11;63.05
9335;BME280;4706;41.844;26.082;2023-07-31T00:39:24;100062.13;;;25.20;62.22
9335;BME280;4706;41.844;26.082;2023-07-31T00:41:49;100050.97;;;24.99;62.65
9335;BME280;4706;41.844;26.082;2023-07-31T00:44:15;100057.72;;;25.15;62.51
9335;BME280;4706;41.844;26.082;2023-07-31T00:46:40;100058.13;;;25.17;62.05
9335;BME280;4706;41.844;26.082;2023-07-31T00:49:06;100054.88;;;25.19;62.30
9335;BME280;4706;41.844;26.082;2023-07-31T00:51:31;100055.69;;;25.16;62.87
9335;BME280;4706;41.844;26.082;2023-07-31T00:53:57;100058.94;;;25.07;63.05
9335;BME280;4706;41.844;26.082;2023-07-31T00:56:23;100062.56;;;25.11;63.12
9335;BME280;4706;41.844;26.082;2023-07-31T00:58:50;100063.34;;;25.15;63.00
9335;BME280;4706;41.844;26.082;2023-07-31T01:01:16;100064.56;;;25.14;63.15
9335;BME280;4706;41.844;26.082;2023-07-31T01:03:41;100057.72;;;25.08;63.03
9335;BME280;4706;41.844;26.082;2023-07-31T01:08:57;100065.75;;;25.17;63.15
9335;BME280;4706;41.844;26.082;2023-07-31T01:11:28;100070.97;;;25.18;62.43
9335;BME280;4706;41.844;26.082;2023-07-31T01:13:55;100082.25;;;25.15;62.47
9335;BME280;4706;41.844;26.082;2023-07-31T01:16:20;100083.78;;;25.23;62.16
9335;BME280;4706;41.844;26.082;2023-07-31T01:18:45;100087.78;;;25.29;62.09
9335;BME280;4706;41.844;26.082;2023-07-31T01:24:30;100089.72;;;25.39;61.63
9335;BME280;4706;41.844;26.082;2023-07-31T01:27:12;100103.59;;;25.64;60.62
9335;BME280;4706;41.844;26.082;2023-07-31T01:32:11;100096.94;;;25.92;59.92
9335;BME280;4706;41.844;26.082;2023-07-31T01:34:37;100097.25;;;26.02;59.60
9335;BME280;4706;41.844;26.082;2023-07-31T01:37:04;100088.75;;;26.05;59.31
9335;BME280;4706;41.844;26.082;2023-07-31T01:39:30;100095.50;;;26.15;58.73
9335;BME280;4706;41.844;26.082;2023-07-31T01:41:55;100099.88;;;26.20;58.72
9335;BME280;4706;41.844;26.082;2023-07-31T01:44:21;100097.91;;;26.16;58.96
9335;BME280;4706;41.844;26.082;2023-07-31T01:46:46;100103.94;;;26.19;58.53
9335;BME280;4706;41.844;26.082;2023-07-31T01:49:12;100108.59;;;26.32;58.02
9335;BME280;4706;41.844;26.082;2023-07-31T01:51:38;100107.03;;;26.28;57.44
9335;BME280;4706;41.844;26.082;2023-07-31T01:54:03;100113.28;;;26.08;58.23
9335;BME280;4706;41.844;26.082;2023-07-31T01:56:29;100103.47;;;25.82;59.07
9335;BME280;4706;41.844;26.082;2023-07-31T01:58:54;100106.34;;;25.72;59.63
9335;BME280;4706;41.844;26.082;2023-07-31T02:01:20;100113.97;;;25.78;59.71
9335;BME280;4706;41.844;26.082;2023-07-31T02:03:45;100113.88;;;25.89;58.93
9335;BME280;4706;41.844;26.082;2023-07-31T02:06:11;100105.81;;;25.87;58.93
9335;BME280;4706;41.844;26.082;2023-07-31T02:08:36;100106.13;;;25.52;60.01
9335;BME280;4706;41.844;26.082;2023-07-31T02:11:02;100096.19;;;25.88;59.08
9335;BME280;4706;41.844;26.082;2023-07-31T02:13:28;100093.44;;;25.81;59.21
9335;BME280;4706;41.844;26.082;2023-07-31T02:15:53;100076.84;;;25.38;60.85
9335;BME280;4706;41.844;26.082;2023-07-31T02:18:19;100079.84;;;25.13;64.80
9335;BME280;4706;41.844;26.082;2023-07-31T02:20:49;100075.66;;;24.69;68.02
9335;BME280;4706;41.844;26.082;2023-07-31T02:23:15;100081.53;;;24.93;67.08
9335;BME280;4706;41.844;26.082;2023-07-31T02:25:40;100087.84;;;25.22;65.75
9335;BME280;4706;41.844;26.082;2023-07-31T02:28:06;100091.41;;;25.30;64.88
9335;BME280;4706;41.844;26.082;2023-07-31T02:30:31;100093.47;;;25.22;65.05
9335;BME280;4706;41.844;26.082;2023-07-31T02:32:57;100090.34;;;25.02;65.52
9335;BME280;4706;41.844;26.082;2023-07-31T02:35:22;100101.56;;;25.13;64.98
9335;BME280;4706;41.844;26.082;2023-07-31T02:37:48;100087.75;;;25.33;63.17
9335;BME280;4706;41.844;26.082;2023-07-31T02:40:13;100087.00;;;25.29;62.41
9335;BME280;4706;41.844;26.082;2023-07-31T02:42:39;100102.22;;;25.35;62.44
9335;BME280;4706;41.844;26.082;2023-07-31T02:45:05;100108.72;;;25.28;62.25
9335;BME280;4706;41.844;26.082;2023-07-31T02:47:31;100106.72;;;25.22;62.78
9335;BME280;4706;41.844;26.082;2023-07-31T02:49:56;100118.84;;;25.15;62.78
9335;BME280;4706;41.844;26.082;2023-07-31T02:52:22;100120.44;;;25.16;63.05
9335;BME280;4706;41.844;26.082;2023-07-31T02:54:47;100105.94;;;25.21;62.52
9335;BME280;4706;41.844;26.082;2023-07-31T02:57:12;100108.75;;;25.21;62.03
9335;BME280;4706;41.844;26.082;2023-07-31T02:59:38;100111.97;;;25.19;62.30
9335;BME280;4706;41.844;26.082;2023-07-31T03:02:03;100116.78;;;25.23;62.32
9335;BME280;4706;41.844;26.082;2023-07-31T03:04:29;100114.72;;;25.30;61.75
9335;BME280;4706;41.844;26.082;2023-07-31T03:06:54;100119.81;;;25.46;61.46
9335;BME280;4706;41.844;26.082;2023-07-31T03:09:20;100118.19;;;25.52;61.17
9335;BME280;4706;41.844;26.082;2023-07-31T03:11:46;100112.94;;;25.54;60.99
9335;BME280;4706;41.844;26.082;2023-07-31T03:14:11;100111.81;;;25.44;60.55
9335;BME280;4706;41.844;26.082;2023-07-31T03:16:37;100116.25;;;25.38;60.64
9335;BME280;4706;41.844;26.082;2023-07-31T03:19:02;100111.38;;;25.46;60.88
9335;BME280;4706;41.844;26.082;2023-07-31T03:21:28;100111.91;;;25.27;61.42
9335;BME280;4706;41.844;26.082;2023-07-31T03:23:53;100103.44;;;25.34;61.39
9335;BME280;4706;41.844;26.082;2023-07-31T03:26:19;100110.59;;;25.42;61.41
9335;BME280;4706;41.844;26.082;2023-07-31T03:28:44;100113.03;;;25.40;61.29
9335;BME280;4706;41.844;26.082;2023-07-31T03:31:10;100109.06;;;25.34;61.61
9335;BME280;4706;41.844;26.082;2023-07-31T03:33:37;100116.38;;;25.24;61.99
9335;BME280;4706;41.844;26.082;2023-07-31T03:36:02;100108.00;;;25.13;62.34
9335;BME280;4706;41.844;26.082;2023-07-31T03:38:29;100102.84;;;24.94;63.20
9335;BME280;4706;41.844;26.082;2023-07-31T03:40:54;100108.50;;;24.90;63.65
9335;BME280;4706;41.844;26.082;2023-07-31T03:43:20;100107.47;;;24.49;65.23
9335;BME280;4706;41.844;26.082;2023-07-31T03:45:45;100112.25;;;24.59;64.80
9335;BME280;4706;41.844;26.082;2023-07-31T03:48:11;100103.72;;;24.84;63.90
9335;BME280;4706;41.844;26.082;2023-07-31T03:50:36;100104.06;;;24.89;63.01
9335;BME280;4706;41.844;26.082;2023-07-31T03:53:02;100100.06;;;24.90;62.91
9335;BME280;4706;41.844;26.082;2023-07-31T03:55:27;100093.72;;;24.72;63.73
9335;BME280;4706;41.844;26.082;2023-07-31T03:57:53;100102.59;;;24.63;64.16
9335;BME280;4706;41.844;26.082;2023-07-31T04:00:18;100103.44;;;24.53;65.46
9335;BME280;4706;41.844;26.082;2023-07-31T04:02:44;100097.03;;;24.49;65.77
9335;BME280;4706;41.844;26.082;2023-07-31T04:05:10;100103.47;;;24.50;65.92
9335;BME280;4706;41.844;26.082;2023-07-31T04:07:36;100103.84;;;24.44;65.60
9335;BME280;4706;41.844;26.082;2023-07-31T04:10:01;100111.06;;;24.56;65.92
9335;BME280;4706;41.844;26.082;2023-07-31T04:12:27;100111.78;;;24.75;65.22
9335;BME280;4706;41.844;26.082;2023-07-31T04:14:52;100105.72;;;24.87;64.46
9335;BME280;4706;41.844;26.082;2023-07-31T04:17:18;100090.63;;;24.49;65.03
9335;BME280;4706;41.844;26.082;2023-07-31T04:19:43;100106.66;;;24.44;64.92
9335;BME280;4706;41.844;26.082;2023-07-31T04:22:09;100119.53;;;24.42;64.91
9335;BME280;4706;41.844;26.082;2023-07-31T04:24:34;100113.91;;;24.49;64.68
9335;BME280;4706;41.844;26.082;2023-07-31T04:27:00;100113.44;;;24.65;63.79
9335;BME280;4706;41.844;26.082;2023-07-31T04:29:25;100113.50;;;24.40;65.09
9335;BME280;4706;41.844;26.082;2023-07-31T04:31:51;100126.72;;;24.54;64.99
9335;BME280;4706;41.844;26.082;2023-07-31T04:34:16;100136.25;;;24.85;63.79
9335;BME280;4706;41.844;26.082;2023-07-31T04:36:42;100146.97;;;25.15;62.95
9335;BME280;4706;41.844;26.082;2023-07-31T04:39:07;100134.69;;;25.50;61.30
9335;BME280;4706;41.844;26.082;2023-07-31T04:41:33;100136.47;;;25.82;60.17
9335;BME280;4706;41.844;26.082;2023-07-31T04:43:58;100140.69;;;26.08;59.30
9335;BME280;4706;41.844;26.082;2023-07-31T04:46:24;100134.09;;;26.22;58.96
9335;BME280;4706;41.844;26.082;2023-07-31T04:48:49;100135.44;;;26.48;57.64
9335;BME280;4706;41.844;26.082;2023-07-31T04:51:15;100142.06;;;26.68;57.35
9335;BME280;4706;41.844;26.082;2023-07-31T04:53:40;100144.69;;;26.86;56.58
9335;BME280;4706;41.844;26.082;2023-07-31T04:56:06;100146.34;;;27.10;55.78
9335;BME280;4706;41.844;26.082;2023-07-31T04:58:31;100161.91;;;27.26;55.65
9335;BME280;4706;41.844;26.082;2023-07-31T05:00:57;100161.25;;;27.42;55.46
9335;BME280;4706;41.844;26.082;2023-07-31T05:03:22;100163.56;;;27.50;55.67
9335;BME280;4706;41.844;26.082;2023-07-31T05:05:48;100161.44;;;27.58;55.53
9335;BME280;4706;41.844;26.082;2023-07-31T05:08:13;100155.34;;;27.59;55.55
9335;BME280;4706;41.844;26.082;2023-07-31T05:10:39;100177.41;;;27.68;55.59
9335;BME280;4706;41.844;26.082;2023-07-31T05:13:04;100170.00;;;27.78;55.58
9335;BME280;4706;41.844;26.082;2023-07-31T05:15:30;100169.34;;;27.94;55.13
9335;BME280;4706;41.844;26.082;2023-07-31T05:17:56;100165.16;;;28.02;54.45
9335;BME280;4706;41.844;26.082;2023-07-31T05:20:21;100163.50;;;28.04;54.54
9335;BME280;4706;41.844;26.082;2023-07-31T05:22:47;100157.84;;;28.04;54.26
9335;BME280;4706;41.844;26.082;2023-07-31T05:25:13;100168.94;;;27.95;54.65
9335;BME280;4706;41.844;26.082;2023-07-31T05:27:38;100185.91;;;27.95;54.53
9335;BME280;4706;41.844;26.082;2023-07-31T05:30:04;100184.47;;;27.83;55.09
9335;BME280;4706;41.844;26.082;2023-07-31T05:32:30;100182.13;;;27.78;55.08
9335;BME280;4706;41.844;26.082;2023-07-31T05:34:56;100180.59;;;27.70;55.11
9335;BME280;4706;41.844;26.082;2023-07-31T05:37:21;100179.81;;;27.70;55.38
9335;BME280;4706;41.844;26.082;2023-07-31T05:39:47;100188.66;;;27.72;55.01
9335;BME280;4706;41.844;26.082;2023-07-31T05:42:12;100189.84;;;27.74;55.34
9335;BME280;4706;41.844;26.082;2023-07-31T05:44:38;100195.00;;;27.79;55.06
9335;BME280;4706;41.844;26.082;2023-07-31T05:47:04;100206.44;;;27.72;55.37
9335;BME280;4706;41.844;26.082;2023-07-31T05:49:29;100213.66;;;27.73;55.44
9335;BME280;4706;41.844;26.082;2023-07-31T05:51:55;100219.28;;;27.77;55.66
9335;BME280;4706;41.844;26.082;2023-07-31T05:54:20;100218.84;;;27.78;55.91
9335;BME280;4706;41.844;26.082;2023-07-31T05:56:46;100220.13;;;27.74;56.01
9335;BME280;4706;41.844;26.082;2023-07-31T05:59:12;100225.03;;;27.70;56.25
9335;BME280;4706;41.844;26.082;2023-07-31T06:01:39;100218.69;;;27.62;56.24
9335;BME280;4706;41.844;26.082;2023-07-31T06:04:04;100226.75;;;27.60;56.56
9335;BME280;4706;41.844;26.082;2023-07-31T06:06:30;100238.81;;;27.64;56.65
9335;BME280;4706;41.844;26.082;2023-07-31T06:08:55;100235.94;;;27.68;56.32
9335;BME280;4706;41.844;26.082;2023-07-31T06:11:21;100243.16;;;27.72;56.21
9335;BME280;4706;41.844;26.082;2023-07-31T06:13:47;100247.16;;;27.75;55.82
9335;BME280;4706;41.844;26.082;2023-07-31T06:16:14;100257.28;;;27.76;55.81
9335;BME280;4706;41.844;26.082;2023-07-31T06:18:39;100255.94;;;27.84;55.87
9335;BME280;4706;41.844;26.082;2023-07-31T06:21:05;100263.88;;;27.93;55.48
9335;BME280;4706;41.844;26.082;2023-07-31T06:23:31;100256.44;;;28.02;55.04
9335;BME280;4706;41.844;26.082;2023-07-31T06:25:57;100248.03;;;27.99;54.07
9335;BME280;4706;41.844;26.082;2023-07-31T06:28:30;100264.00;;;28.09;53.35
9335;BME280;4706;41.844;26.082;2023-07-31T06:30:59;100259.91;;;28.14;52.88
9335;BME280;4706;41.844;26.082;2023-07-31T06:33:24;100262.13;;;28.26;52.17
9335;BME280;4706;41.844;26.082;2023-07-31T06:35:50;100258.38;;;28.32;52.11
9335;BME280;4706;41.844;26.082;2023-07-31T06:38:22;100268.66;;;28.46;51.98
9335;BME280;4706;41.844;26.082;2023-07-31T06:40:48;100249.91;;;28.56;51.24
9335;BME280;4706;41.844;26.082;2023-07-31T06:43:14;100260.97;;;28.70;50.82
9335;BME280;4706;41.844;26.082;2023-07-31T06:45:39;100261.72;;;28.94;50.10
9335;BME280;4706;41.844;26.082;2023-07-31T06:48:05;100254.41;;;29.17;49.38
9335;BME280;4706;41.844;26.082;2023-07-31T06:50:31;100250.63;;;29.23;48.89
9335;BME280;4706;41.844;26.082;2023-07-31T06:52:57;100256.16;;;29.31;48.40
9335;BME280;4706;41.844;26.082;2023-07-31T06:55:23;100262.47;;;29.38;48.20
9335;BME280;4706;41.844;26.082;2023-07-31T06:57:51;100257.44;;;29.46;48.03
9335;BME280;4706;41.844;26.082;2023-07-31T07:00:17;100244.25;;;29.56;46.83
9335;BME280;4706;41.844;26.082;2023-07-31T07:02:43;100242.66;;;29.55;46.20
9335;BME280;4706;41.844;26.082;2023-07-31T07:05:08;100239.25;;;29.63;46.00
9335;BME280;4706;41.844;26.082;2023-07-31T07:07:34;100242.56;;;29.78;45.56
9335;BME280;4706;41.844;26.082;2023-07-31T07:10:00;100249.94;;;29.75;45.20
9335;BME280;4706;41.844;26.082;2023-07-31T07:12:31;100245.56;;;29.71;45.57
9335;BME280;4706;41.844;26.082;2023-07-31T07:14:57;100250.44;;;29.70;45.43
9335;BME280;4706;41.844;26.082;2023-07-31T07:17:29;100253.63;;;29.72;45.49
9335;BME280;4706;41.844;26.082;2023-07-31T07:19:57;100243.81;;;29.77;45.47
9335;BME280;4706;41.844;26.082;2023-07-31T07:22:23;100247.19;;;29.88;44.84
9335;BME280;4706;41.844;26.082;2023-07-31T07:24:48;100252.78;;;29.92;44.74
9335;BME280;4706;41.844;26.082;2023-07-31T07:27:14;100246.13;;;29.98;44.03
9335;BME280;4706;41.844;26.082;2023-07-31T07:29:40;100251.44;;;29.96;44.25
9335;BME280;4706;41.844;26.082;2023-07-31T07:32:05;100248.59;;;29.96;44.25
9335;BME280;4706;41.844;26.082;2023-07-31T07:34:31;100252.06;;;30.04;44.46
9335;BME280;4706;41.844;26.082;2023-07-31T07:36:56;100244.09;;;29.99;43.93
9335;BME280;4706;41.844;26.082;2023-07-31T07:39:22;100258.97;;;30.03;44.08
9335;BME280;4706;41.844;26.082;2023-07-31T07:41:48;100255.78;;;30.01;44.38
9335;BME280;4706;41.844;26.082;2023-07-31T07:44:14;100256.84;;;29.91;44.58
9335;BME280;4706;41.844;26.082;2023-07-31T07:46:41;100260.03;;;29.93;44.44
9335;BME280;4706;41.844;26.082;2023-07-31T07:49:06;100269.16;;;29.84;44.56
9335;BME280;4706;41.844;26.082;2023-07-31T07:51:32;100270.19;;;29.74;46.00
9335;BME280;4706;41.844;26.082;2023-07-31T07:53:58;100267.50;;;29.67;46.92
9335;BME280;4706;41.844;26.082;2023-07-31T07:56:25;100259.47;;;29.65;46.99
9335;BME280;4706;41.844;26.082;2023-07-31T07:58:51;100267.44;;;29.70;47.13
9335;BME280;4706;41.844;26.082;2023-07-31T08:01:16;100258.59;;;29.68;48.20
9335;BME280;4706;41.844;26.082;2023-07-31T08:03:42;100246.09;;;29.66;48.65
9335;BME280;4706;41.844;26.082;2023-07-31T08:06:07;100248.47;;;29.67;49.26
9335;BME280;4706;41.844;26.082;2023-07-31T08:08:35;100247.88;;;29.56;50.19
9335;BME280;4706;41.844;26.082;2023-07-31T08:11:01;100244.22;;;29.59;50.80
9335;BME280;4706;41.844;26.082;2023-07-31T08:13:27;100244.59;;;29.61;50.69
9335;BME280;4706;41.844;26.082;2023-07-31T08:15:53;100251.38;;;29.64;52.13
9335;BME280;4706;41.844;26.082;2023-07-31T08:18:19;100260.25;;;29.66;51.70
9335;BME280;4706;41.844;26.082;2023-07-31T08:20:44;100263.38;;;29.71;51.15
9335;BME280;4706;41.844;26.082;2023-07-31T08:23:10;100264.84;;;29.60;51.01
9335;BME280;4706;41.844;26.082;2023-07-31T08:25:36;100264.63;;;29.50;51.14
9335;BME280;4706;41.844;26.082;2023-07-31T08:28:03;100280.81;;;29.50;51.73
9335;BME280;4706;41.844;26.082;2023-07-31T08:30:29;100283.59;;;29.34;52.44
9335;BME280;4706;41.844;26.082;2023-07-31T08:32:55;100280.34;;;29.15;53.34
9335;BME280;4706;41.844;26.082;2023-07-31T08:35:21;100279.34;;;28.82;54.40
9335;BME280;4706;41.844;26.082;2023-07-31T08:37:47;100267.84;;;28.69;54.46
9335;BME280;4706;41.844;26.082;2023-07-31T08:40:12;100266.13;;;28.75;54.49
9335;BME280;4706;41.844;26.082;2023-07-31T08:42:45;100266.41;;;28.81;54.37
9335;BME280;4706;41.844;26.082;2023-07-31T08:45:16;100266.41;;;28.81;54.33
9335;BME280;4706;41.844;26.082;2023-07-31T08:47:47;100274.69;;;28.92;53.72
9335;BME280;4706;41.844;26.082;2023-07-31T08:50:14;100272.66;;;28.92;54.13
9335;BME280;4706;41.844;26.082;2023-07-31T08:52:40;100265.72;;;28.97;53.96
9335;BME280;4706;41.844;26.082;2023-07-31T08:55:06;100266.50;;;28.97;53.93
9335;BME280;4706;41.844;26.082;2023-07-31T08:57:34;100261.34;;;28.92;54.48
9335;BME280;4706;41.844;26.082;2023-07-31T09:00:00;100266.72;;;28.87;54.49
9335;BME280;4706;41.844;26.082;2023-07-31T09:02:31;100263.03;;;28.90;54.20
9335;BME280;4706;41.844;26.082;2023-07-31T09:05:01;100273.78;;;28.98;54.47
9335;BME280;4706;41.844;26.082;2023-07-31T09:07:28;100280.56;;;29.04;54.21
9335;BME280;4706;41.844;26.082;2023-07-31T09:09:54;100279.91;;;29.17;54.23
9335;BME280;4706;41.844;26.082;2023-07-31T09:12:20;100266.75;;;29.26;53.74
9335;BME280;4706;41.844;26.082;2023-07-31T09:14:46;100269.34;;;29.37;53.58
9335;BME280;4706;41.844;26.082;2023-07-31T09:17:12;100276.81;;;29.47;53.32
9335;BME280;4706;41.844;26.082;2023-07-31T09:19:37;100259.41;;;29.49;52.59
9335;BME280;4706;41.844;26.082;2023-07-31T09:22:07;100258.31;;;29.63;51.97
9335;BME280;4706;41.844;26.082;2023-07-31T09:24:34;100265.22;;;29.78;51.70
9335;BME280;4706;41.844;26.082;2023-07-31T09:27:01;100268.78;;;29.82;50.62
9335;BME280;4706;41.844;26.082;2023-07-31T09:29:27;100267.91;;;29.85;49.67
9335;BME280;4706;41.844;26.082;2023-07-31T09:31:54;100272.16;;;29.93;49.11
9335;BME280;4706;41.844;26.082;2023-07-31T09:34:28;100261.34;;;29.88;49.29
9335;BME280;4706;41.844;26.082;2023-07-31T09:36:54;100278.38;;;30.05;48.66
9335;BME280;4706;41.844;26.082;2023-07-31T09:39:20;100279.91;;;30.09;48.67
9335;BME280;4706;41.844;26.082;2023-07-31T09:42:04;100275.16;;;30.22;48.42
9335;BME280;4706;41.844;26.082;2023-07-31T09:44:41;100279.16;;;30.25;47.39
9335;BME280;4706;41.844;26.082;2023-07-31T09:47:21;100272.69;;;30.24;48.39
9335;BME280;4706;41.844;26.082;2023-07-31T09:49:48;100266.31;;;30.20;49.08
9335;BME280;4706;41.844;26.082;2023-07-31T09:52:14;100264.50;;;30.27;49.09
9335;BME280;4706;41.844;26.082;2023-07-31T09:54:39;100271.69;;;30.31;49.80
9335;BME280;4706;41.844;26.082;2023-07-31T09:57:05;100280.66;;;30.30;50.08
9335;BME280;4706;41.844;26.082;2023-07-31T09:59:31;100262.38;;;30.31;50.28
9335;BME280;4706;41.844;26.082;2023-07-31T10:01:57;100266.44;;;30.46;50.15
9335;BME280;4706;41.844;26.082;2023-07-31T10:04:25;100264.66;;;30.52;49.61
9335;BME280;4706;41.844;26.082;2023-07-31T10:06:53;100266.16;;;30.73;48.96
9335;BME280;4706;41.844;26.082;2023-07-31T10:09:20;100265.34;;;30.89;48.25
9335;BME280;4706;41.844;26.082;2023-07-31T10:11:48;100259.59;;;31.18;47.25
9335;BME280;4706;41.844;26.082;2023-07-31T10:14:19;100258.34;;;31.48;46.15
9335;BME280;4706;41.844;26.082;2023-07-31T10:16:45;100264.16;;;31.70;46.32
9335;BME280;4706;41.844;26.082;2023-07-31T10:19:11;100256.94;;;31.95;45.65
9335;BME280;4706;41.844;26.082;2023-07-31T10:21:37;100241.91;;;32.07;44.45
9335;BME280;4706;41.844;26.082;2023-07-31T10:24:03;100251.09;;;32.11;44.53
9335;BME280;4706;41.844;26.082;2023-07-31T10:26:31;100249.78;;;32.37;44.07
9335;BME280;4706;41.844;26.082;2023-07-31T10:28:58;100253.91;;;32.49;43.95
9335;BME280;4706;41.844;26.082;2023-07-31T10:31:24;100251.03;;;32.49;43.63
9335;BME280;4706;41.844;26.082;2023-07-31T10:33:51;100248.88;;;32.53;43.46
9335;BME280;4706;41.844;26.082;2023-07-31T10:36:19;100249.44;;;32.83;42.71
9335;BME280;4706;41.844;26.082;2023-07-31T10:38:48;100243.13;;;33.01;42.80
9335;BME280;4706;41.844;26.082;2023-07-31T10:41:14;100236.03;;;33.27;42.25
9335;BME280;4706;41.844;26.082;2023-07-31T10:43:40;100237.72;;;33.47;41.28
9335;BME280;4706;41.844;26.082;2023-07-31T10:46:12;100227.63;;;33.55;40.85
9335;BME280;4706;41.844;26.082;2023-07-31T10:48:39;100232.25;;;33.62;40.86
9335;BME280;4706;41.844;26.082;2023-07-31T10:51:12;100226.25;;;33.59;41.14
9335;BME280;4706;41.844;26.082;2023-07-31T10:53:39;100218.19;;;33.67;40.63
9335;BME280;4706;41.844;26.082;2023-07-31T10:56:08;100215.88;;;33.84;39.90
9335;BME280;4706;41.844;26.082;2023-07-31T10:58:36;100207.53;;;33.99;38.63
9335;BME280;4706;41.844;26.082;2023-07-31T11:01:04;100204.72;;;34.17;39.13
9335;BME280;4706;41.844;26.082;2023-07-31T11:03:49;100190.47;;;34.26;38.19
9335;BME280;4706;41.844;26.082;2023-07-31T11:06:17;100195.91;;;34.52;38.21
9335;BME280;4706;41.844;26.082;2023-07-31T11:08:50;100185.25;;;34.34;37.75
9335;BME280;4706;41.844;26.082;2023-07-31T11:11:17;100183.03;;;34.38;38.30
9335;BME280;4706;41.844;26.082;2023-07-31T11:13:46;100177.00;;;34.64;37.90
9335;BME280;4706;41.844;26.082;2023-07-31T11:16:14;100179.41;;;34.56;37.58
9335;BME280;4706;41.844;26.082;2023-07-31T11:18:42;100159.66;;;34.03;38.72
9335;BME280;4706;41.844;26.082;2023-07-31T11:21:12;100171.13;;;34.12;38.72
9335;BME280;4706;41.844;26.082;2023-07-31T11:23:38;100165.91;;;34.47;37.88
9335;BME280;4706;41.844;26.082;2023-07-31T11:26:05;100163.03;;;34.75;37.07
9335;BME280;4706;41.844;26.082;2023-07-31T11:28:33;100161.75;;;34.85;36.79
9335;BME280;4706;41.844;26.082;2023-07-31T11:31:02;100161.09;;;35.09;36.22
9335;BME280;4706;41.844;26.082;2023-07-31T11:33:28;100146.00;;;35.17;35.84
9335;BME280;4706;41.844;26.082;2023-07-31T11:35:54;100146.09;;;35.32;35.98
9335;BME280;4706;41.844;26.082;2023-07-31T11:38:27;100142.34;;;35.59;36.00
9335;BME280;4706;41.844;26.082;2023-07-31T11:40:55;100148.63;;;35.72;34.80
9335;BME280;4706;41.844;26.082;2023-07-31T11:43:21;100144.66;;;35.37;35.70
9335;BME280;4706;41.844;26.082;2023-07-31T11:45:48;100132.16;;;35.16;35.76
9335;BME280;4706;41.844;26.082;2023-07-31T11:50:48;100135.91;;;35.31;35.61
9335;BME280;4706;41.844;26.082;2023-07-31T11:53:16;100121.91;;;35.42;35.57
9335;BME280;4706;41.844;26.082;2023-07-31T11:55:42;100129.50;;;35.45;34.73
9335;BME280;4706;41.844;26.082;2023-07-31T11:58:09;100122.47;;;35.22;34.58
9335;BME280;4706;41.844;26.082;2023-07-31T12:00:35;100122.53;;;34.95;35.64
9335;BME280;4706;41.844;26.082;2023-07-31T12:03:00;100113.78;;;35.08;35.75
9335;BME280;4706;41.844;26.082;2023-07-31T12:05:26;100105.38;;;35.13;34.82
9335;BME280;4706;41.844;26.082;2023-07-31T12:07:54;100098.06;;;34.94;34.81
9335;BME280;4706;41.844;26.082;2023-07-31T12:10:30;100097.59;;;34.95;34.50
9335;BME280;4706;41.844;26.082;2023-07-31T12:13:00;100093.50;;;34.87;35.90
9335;BME280;4706;41.844;26.082;2023-07-31T12:15:32;100084.59;;;35.03;34.92
9335;BME280;4706;41.844;26.082;2023-07-31T12:17:58;100089.38;;;34.88;33.41
9335;BME280;4706;41.844;26.082;2023-07-31T12:20:24;100077.50;;;34.71;34.44
9335;BME280;4706;41.844;26.082;2023-07-31T12:22:49;100065.78;;;34.60;34.26
9335;BME280;4706;41.844;26.082;2023-07-31T12:25:15;100057.88;;;34.64;34.15
9335;BME280;4706;41.844;26.082;2023-07-31T12:27:44;100060.84;;;34.70;34.10
9335;BME280;4706;41.844;26.082;2023-07-31T12:30:27;100051.38;;;34.54;32.83
9335;BME280;4706;41.844;26.082;2023-07-31T12:32:53;100069.78;;;34.53;33.11
9335;BME280;4706;41.844;26.082;2023-07-31T12:35:19;100058.81;;;34.52;32.95
9335;BME280;4706;41.844;26.082;2023-07-31T12:37:44;100059.59;;;34.52;33.17
9335;BME280;4706;41.844;26.082;2023-07-31T12:40:10;100062.66;;;34.21;33.76
9335;BME280;4706;41.844;26.082;2023-07-31T12:42:36;100060.44;;;34.16;33.76
9335;BME280;4706;41.844;26.082;2023-07-31T12:45:02;100059.03;;;34.12;34.02
9335;BME280;4706;41.844;26.082;2023-07-31T12:47:27;100056.94;;;34.21;34.45
9335;BME280;4706;41.844;26.082;2023-07-31T12:49:53;100053.47;;;34.08;35.13
9335;BME280;4706;41.844;26.082;2023-07-31T12:52:18;100047.09;;;33.95;35.08
9335;BME280;4706;41.844;26.082;2023-07-31T12:54:44;100046.59;;;33.87;34.76
9335;BME280;4706;41.844;26.082;2023-07-31T12:57:09;100037.25;;;33.68;34.69
9335;BME280;4706;41.844;26.082;2023-07-31T12:59:35;100041.63;;;33.51;35.51
9335;BME280;4706;41.844;26.082;2023-07-31T13:02:00;100040.88;;;33.59;35.02
9335;BME280;4706;41.844;26.082;2023-07-31T13:04:26;100046.41;;;33.54;35.42
9335;BME280;4706;41.844;26.082;2023-07-31T13:06:51;100033.00;;;33.32;35.53